Time;durP1;ratioP1;P1;durP2;ratioP2;P2;SDS_P1;SDS_P2;PMS_P1;PMS_P2;Temp;Humidity;BMP_temperature;BMP_pressure;BME280_temperature;BME280_humidity;BME280_pressure;Samples;Min_cycle;Max_cycle;Signal;HPM_P1;HPM_P2
2024/01/17 00:01:20;;;;;;;10.65;7.15;;;3.90;60.60;5.80;99938.00;;;;5034060;28;20201;-73
2024/01/17 00:03:47;;;;;;;8.60;6.63;;;3.90;60.70;5.80;99946.00;;;;5032759;28;20200;-72
2024/01/17 00:06:14;;;;;;;13.90;7.82;;;3.90;61.40;5.80;99937.00;;;;5034331;28;20196;-73
2024/01/17 00:08:41;;;;;;;12.02;7.35;;;3.90;60.70;5.80;99925.00;;;;5033633;28;20218;-72
2024/01/17 00:11:08;;;;;;;10.35;6.75;;;3.90;60.80;5.70;99922.00;;;;5033697;28;20670;-73
2024/01/17 00:13:37;;;;;;;12.70;7.35;;;3.90;60.80;5.70;99927.00;;;;5033515;28;20284;-73
2024/01/17 00:16:05;;;;;;;9.90;7.20;;;3.80;60.80;5.70;99921.00;;;;5032880;28;20192;-73
2024/01/17 00:18:32;;;;;;;10.35;7.15;;;3.80;60.70;5.70;99909.00;;;;5040558;28;20311;-73
2024/01/17 00:20:59;;;;;;;10.88;7.05;;;3.80;60.70;5.60;99912.00;;;;5031542;28;20197;-73
2024/01/17 00:23:26;;;;;;;10.63;7.50;;;3.80;60.60;5.60;99912.00;;;;5029025;28;20311;-73
2024/01/17 00:25:53;;;;;;;11.40;7.57;;;3.70;60.60;5.60;99909.00;;;;5030214;28;20217;-73
2024/01/17 00:28:20;;;;;;;13.25;7.28;;;3.70;60.60;5.50;99905.00;;;;5031738;28;20231;-73
2024/01/17 00:30:48;;;;;;;11.45;7.78;;;3.70;60.60;5.50;99900.00;;;;5033590;28;20559;-73
2024/01/17 00:33:15;;;;;;;10.77;7.05;;;3.70;60.80;5.50;99896.00;;;;5032733;28;20196;-73
2024/01/17 00:35:42;;;;;;;12.82;8.27;;;3.70;60.90;5.50;99891.00;;;;5035122;28;20201;-73
2024/01/17 00:38:09;;;;;;;13.70;7.50;;;3.70;60.90;5.50;99884.00;;;;5030841;28;20240;-73
2024/01/17 00:40:36;;;;;;;10.70;7.18;;;3.70;61.00;5.50;99879.00;;;;5032150;28;20223;-73
2024/01/17 00:43:04;;;;;;;11.48;8.25;;;3.60;60.90;5.50;99876.00;;;;5030976;28;20626;-73
2024/01/17 00:45:31;;;;;;;13.27;8.07;;;3.60;61.00;5.50;99888.00;;;;5031902;28;20201;-73
2024/01/17 00:47:59;;;;;;;11.43;7.28;;;3.60;61.00;5.50;99889.00;;;;5032794;28;20215;-74
2024/01/17 00:50:26;;;;;;;10.10;7.13;;;3.60;61.20;5.60;99886.00;;;;5033698;28;20203;-73
2024/01/17 00:52:53;;;;;;;10.25;7.25;;;3.60;61.30;5.50;99871.00;;;;5045133;28;20192;-73
2024/01/17 00:55:20;;;;;;;10.20;7.30;;;3.60;61.20;5.50;99873.00;;;;5032462;28;20623;-73
2024/01/17 00:57:47;;;;;;;16.00;8.38;;;3.60;61.20;5.50;99862.00;;;;5030696;28;20228;-73
2024/01/17 01:00:16;;;;;;;12.80;7.95;;;3.60;62.00;5.50;99855.00;;;;5031987;28;20265;-73
2024/01/17 01:02:43;;;;;;;12.18;7.93;;;3.60;61.10;5.40;99853.00;;;;5031787;28;20202;-73
2024/01/17 01:05:13;;;;;;;11.38;7.40;;;3.60;61.20;5.40;99847.00;;;;5031863;28;20837;-73
2024/01/17 01:07:40;;;;;;;9.95;6.60;;;3.50;61.10;5.40;99837.00;;;;5030059;28;20692;-73
2024/01/17 01:10:08;;;;;;;10.90;7.63;;;3.50;61.10;5.40;99834.00;;;;5041059;28;20200;-73
2024/01/17 01:12:35;;;;;;;12.63;7.00;;;3.50;61.20;5.40;99833.00;;;;5031448;28;20200;-74
2024/01/17 01:15:02;;;;;;;11.77;8.13;;;3.50;61.30;5.40;99831.00;;;;5032966;28;20287;-74
2024/01/17 01:17:29;;;;;;;11.48;8.02;;;3.50;61.30;5.40;99830.00;;;;5031252;28;20592;-74
2024/01/17 01:19:56;;;;;;;10.18;7.28;;;3.50;61.40;5.40;99832.00;;;;5031657;28;20275;-74
2024/01/17 01:22:25;;;;;;;11.18;6.78;;;3.40;61.30;5.40;99830.00;;;;5035005;28;20724;-75
2024/01/17 01:24:53;;;;;;;10.13;7.25;;;3.40;61.50;5.40;99823.00;;;;5031814;28;20219;-74
2024/01/17 01:27:20;;;;;;;12.60;8.40;;;3.40;61.40;5.30;99830.00;;;;5031506;28;20291;-74
2024/01/17 01:29:47;;;;;;;12.15;6.75;;;3.40;61.50;5.30;99824.00;;;;5032801;28;20204;-74
2024/01/17 01:32:14;;;;;;;9.35;6.70;;;3.40;62.10;5.30;99813.00;;;;5032680;28;20204;-74
2024/01/17 01:34:41;;;;;;;11.43;7.57;;;3.30;61.40;5.30;99804.00;;;;5032208;28;20574;-74
2024/01/17 01:37:08;;;;;;;10.65;7.03;;;3.30;61.50;5.30;99797.00;;;;5031101;28;20558;-74
2024/01/17 01:39:36;;;;;;;11.20;7.43;;;3.30;61.50;5.20;99795.00;;;;5031900;28;20220;-74
2024/01/17 01:42:04;;;;;;;10.75;7.80;;;3.30;62.20;5.20;99788.00;;;;5032069;28;20649;-74
2024/01/17 01:44:31;;;;;;;11.32;7.35;;;3.30;61.60;5.20;99788.00;;;;5030618;28;20196;-74
2024/01/17 01:46:59;;;;;;;9.70;6.97;;;3.30;61.50;5.20;99786.00;;;;5030130;28;20199;-74
2024/01/17 01:49:27;;;;;;;12.43;8.43;;;3.30;61.60;5.20;99784.00;;;;5032298;28;20197;-74
2024/01/17 01:51:55;;;;;;;9.73;6.68;;;3.20;61.60;5.20;99784.00;;;;5032157;28;20322;-74
2024/01/17 01:54:24;;;;;;;9.57;6.63;;;3.20;61.60;5.20;99773.00;;;;5031857;28;20197;-74
2024/01/17 01:56:54;;;;;;;10.98;7.20;;;3.20;61.60;5.10;99781.00;;;;5031412;28;20189;-75
2024/01/17 01:59:22;;;;;;;9.93;7.30;;;3.20;61.70;5.20;99779.00;;;;5034596;28;20215;-74
2024/01/17 02:01:50;;;;;;;10.23;6.65;;;3.20;61.70;5.10;99774.00;;;;5052557;28;20223;-74
2024/01/17 02:04:18;;;;;;;11.80;7.00;;;3.20;61.70;5.10;99772.00;;;;5042758;28;20192;-74
2024/01/17 02:06:47;;;;;;;8.30;6.40;;;3.20;61.70;5.10;99774.00;;;;5031472;28;20210;-74
2024/01/17 02:09:16;;;;;;;9.25;6.68;;;3.20;61.60;5.10;99761.00;;;;5031059;28;20196;-74
2024/01/17 02:11:43;;;;;;;10.00;7.07;;;3.20;61.60;5.10;99762.00;;;;5030436;28;20457;-74
2024/01/17 02:14:13;;;;;;;12.00;7.72;;;3.10;61.60;5.10;99756.00;;;;5028139;28;20294;-75
2024/01/17 02:16:43;;;;;;;9.32;6.97;;;3.10;61.70;5.10;99751.00;;;;5032824;28;20295;-74
2024/01/17 02:19:11;;;;;;;10.25;6.88;;;3.10;61.70;5.10;99753.00;;;;5029817;28;20224;-74
2024/01/17 02:21:38;;;;;;;11.00;7.00;;;3.10;62.40;5.10;99753.00;;;;5031925;28;20745;-75
2024/01/17 02:24:17;;;;;;;12.85;7.40;;;3.10;61.80;5.00;99747.00;;;;5031453;28;20192;-75
2024/01/17 02:26:44;;;;;;;15.05;7.60;;;3.10;61.80;5.10;99739.00;;;;5030473;28;20684;-75
2024/01/17 02:29:12;;;;;;;12.68;7.22;;;3.10;61.80;5.00;99736.00;;;;5030926;28;20196;-75
2024/01/17 02:31:40;;;;;;;9.98;6.65;;;3.10;61.80;5.10;99732.00;;;;5030956;28;20570;-74
2024/01/17 02:34:07;;;;;;;10.55;6.95;;;3.10;61.90;5.00;99720.00;;;;5034122;28;20200;-74
2024/01/17 02:36:34;;;;;;;9.10;6.82;;;3.00;61.80;5.00;99725.00;;;;5029667;28;20208;-75
2024/01/17 02:39:01;;;;;;;12.82;7.30;;;3.00;61.80;5.00;99725.00;;;;5031309;28;20246;-75
2024/01/17 02:41:29;;;;;;;10.85;6.40;;;3.00;61.80;5.00;99715.00;;;;5030843;28;20200;-75
2024/01/17 02:43:56;;;;;;;11.00;7.47;;;3.00;61.90;5.00;99710.00;;;;5029970;28;20200;-75
2024/01/17 02:46:28;;;;;;;7.78;6.20;;;3.00;62.00;4.90;99700.00;;;;5030513;28;20195;-75
2024/01/17 02:48:56;;;;;;;10.82;7.05;;;3.00;62.00;5.00;99698.00;;;;5031590;28;20696;-75
2024/01/17 02:51:23;;;;;;;9.50;6.82;;;3.00;62.00;4.90;99690.00;;;;5041275;28;20307;-75
2024/01/17 02:53:50;;;;;;;8.85;6.13;;;3.00;62.00;5.00;99686.00;;;;5046729;28;20658;-75
2024/01/17 02:56:17;;;;;;;8.68;6.45;;;3.00;61.90;5.00;99681.00;;;;5030448;28;20681;-75
2024/01/17 02:58:46;;;;;;;7.47;5.85;;;3.00;62.00;5.00;99672.00;;;;5030222;28;20573;-75
2024/01/17 03:01:14;;;;;;;10.88;7.00;;;3.00;62.10;5.00;99666.00;;;;5029314;28;20205;-75
2024/01/17 03:03:42;;;;;;;9.25;7.05;;;2.90;62.10;5.00;99662.00;;;;5030808;28;20211;-75
2024/01/17 03:06:09;;;;;;;9.25;6.75;;;2.90;62.10;5.00;99662.00;;;;5031210;28;20295;-76
2024/01/17 03:08:36;;;;;;;11.77;6.65;;;2.90;62.10;5.00;99667.00;;;;5031345;28;20275;-75
2024/01/17 03:11:04;;;;;;;9.40;6.30;;;2.90;62.20;5.00;99666.00;;;;5029794;28;20196;-76
2024/01/17 03:13:31;;;;;;;12.05;7.13;;;3.00;62.30;5.00;99661.00;;;;5030408;28;20196;-75
2024/01/17 03:15:59;;;;;;;9.73;7.07;;;2.90;62.30;5.00;99651.00;;;;5030333;28;20196;-75
2024/01/17 03:18:26;;;;;;;9.20;6.53;;;2.90;62.20;5.00;99651.00;;;;5022629;28;20222;-76
2024/01/17 03:20:53;;;;;;;11.68;7.32;;;3.00;62.40;5.00;99641.00;;;;5028779;28;20204;-76
2024/01/17 03:23:21;;;;;;;10.93;7.03;;;3.00;62.40;5.00;99631.00;;;;5030275;28;20232;-75
2024/01/17 03:25:49;;;;;;;10.23;6.53;;;3.00;62.40;5.00;99633.00;;;;5046028;28;20222;-76
2024/01/17 03:28:16;;;;;;;8.65;7.00;;;3.00;62.30;5.00;99623.00;;;;5031539;28;20192;-76
2024/01/17 03:30:43;;;;;;;9.55;6.68;;;3.00;62.30;5.00;99629.00;;;;5029659;28;20284;-76
2024/01/17 03:33:12;;;;;;;8.35;6.18;;;3.00;62.20;5.00;99620.00;;;;5011558;28;20201;-76
2024/01/17 03:35:39;;;;;;;7.63;5.85;;;3.00;62.30;5.00;99614.00;;;;5026593;28;20199;-73
2024/01/17 03:38:06;;;;;;;9.15;6.00;;;3.00;62.30;5.00;99605.00;;;;5028230;28;20192;-76
2024/01/17 03:40:33;;;;;;;6.88;5.68;;;3.00;62.20;5.00;99604.00;;;;5030976;28;20207;-75
2024/01/17 03:43:00;;;;;;;9.52;5.78;;;3.00;62.10;5.00;99596.00;;;;5039650;28;20199;-75
2024/01/17 03:45:27;;;;;;;9.38;6.18;;;3.00;62.10;5.00;99594.00;;;;5043116;28;20204;-75
2024/01/17 03:47:54;;;;;;;9.48;6.25;;;3.00;62.20;5.00;99592.00;;;;5043867;28;20661;-76
2024/01/17 03:50:24;;;;;;;8.15;5.57;;;3.00;62.20;5.00;99579.00;;;;5031071;28;20202;-75
2024/01/17 03:52:51;;;;;;;8.48;6.10;;;3.00;62.20;5.10;99573.00;;;;5014365;28;20205;-75
2024/01/17 03:55:18;;;;;;;9.63;5.65;;;3.00;62.10;5.10;99563.00;;;;5026361;28;20200;-75
2024/01/17 03:57:45;;;;;;;6.53;5.20;;;3.00;62.10;5.10;99551.00;;;;5030186;28;20221;-75
2024/01/17 04:00:13;;;;;;;7.95;5.90;;;3.00;62.10;5.10;99544.00;;;;5035785;28;20238;-75
2024/01/17 04:02:40;;;;;;;7.28;5.88;;;3.00;62.10;5.10;99544.00;;;;5034943;28;20197;-76
2024/01/17 04:05:07;;;;;;;8.43;5.30;;;3.10;62.20;5.10;99548.00;;;;5033839;28;20650;-76
2024/01/17 04:07:36;;;;;;;6.82;5.05;;;3.10;62.20;5.10;99529.00;;;;5033709;28;20211;-76
2024/01/17 04:10:03;;;;;;;9.05;5.68;;;3.10;62.20;5.10;99516.00;;;;5033697;28;20200;-76
2024/01/17 04:12:30;;;;;;;8.32;5.20;;;3.10;62.20;5.10;99502.00;;;;5033859;28;20200;-76
2024/01/17 04:14:57;;;;;;;6.80;5.20;;;3.10;62.10;5.10;99507.00;;;;5033162;28;20193;-74
2024/01/17 04:17:24;;;;;;;7.28;5.25;;;3.10;62.00;5.10;99504.00;;;;5042440;28;20189;-76
2024/01/17 04:19:51;;;;;;;7.50;5.28;;;3.10;62.00;5.10;99498.00;;;;5032572;28;20228;-76
2024/01/17 04:22:18;;;;;;;9.95;5.95;;;3.10;61.90;5.20;99495.00;;;;5033562;28;20230;-76
2024/01/17 04:24:48;;;;;;;7.93;5.10;;;3.10;62.00;5.10;99494.00;;;;5031583;28;20222;-76
2024/01/17 04:27:15;;;;;;;9.15;5.78;;;3.10;61.80;5.10;99488.00;;;;5032205;28;20197;-76
2024/01/17 04:29:42;;;;;;;6.28;5.00;;;3.10;61.80;5.10;99487.00;;;;5030252;28;20670;-76
2024/01/17 04:32:09;;;;;;;8.23;5.20;;;3.10;62.00;5.10;99483.00;;;;5035648;28;20232;-76
2024/01/17 04:34:38;;;;;;;7.45;5.10;;;3.10;61.90;5.10;99478.00;;;;5041576;28;20228;-76
2024/01/17 04:37:05;;;;;;;8.32;4.72;;;3.10;61.90;5.20;99483.00;;;;5033094;28;20191;-76
2024/01/17 04:39:32;;;;;;;7.07;5.35;;;3.10;61.70;5.10;99473.00;;;;5031725;28;20224;-76
2024/01/17 04:42:01;;;;;;;6.60;4.82;;;3.10;61.80;5.10;99473.00;;;;5034101;28;20192;-77
2024/01/17 04:44:30;;;;;;;6.72;5.18;;;3.10;61.70;5.10;99468.00;;;;5032076;28;20207;-76
2024/01/17 04:46:57;;;;;;;7.22;5.47;;;3.10;61.70;5.10;99466.00;;;;5033705;28;20220;-76
2024/01/17 04:49:26;;;;;;;9.95;5.68;;;3.10;61.70;5.20;99469.00;;;;5035943;28;20199;-76
2024/01/17 04:51:53;;;;;;;7.43;4.85;;;3.10;61.70;5.20;99455.00;;;;5049852;28;20288;-76
2024/01/17 04:54:21;;;;;;;6.60;4.68;;;3.10;61.70;5.20;99467.00;;;;5033123;28;20295;-76
2024/01/17 04:56:48;;;;;;;8.63;5.20;;;3.10;61.70;5.10;99460.00;;;;5031397;28;20204;-77
2024/01/17 04:59:16;;;;;;;6.63;4.88;;;3.10;61.80;5.10;99456.00;;;;5031065;28;20220;-76
2024/01/17 05:01:44;;;;;;;6.97;4.78;;;3.10;62.50;5.20;99440.00;;;;5032323;28;20202;-77
2024/01/17 05:04:11;;;;;;;5.80;4.65;;;3.10;61.80;5.20;99444.00;;;;5032644;28;20208;-76
2024/01/17 05:06:38;;;;;;;9.52;5.68;;;3.10;61.70;5.10;99439.00;;;;5038327;28;20223;-76
2024/01/17 05:09:08;;;;;;;7.50;4.82;;;3.10;61.70;5.10;99430.00;;;;5034357;28;20210;-76
2024/01/17 05:11:35;;;;;;;8.23;5.15;;;3.10;61.70;5.20;99437.00;;;;5033557;28;20196;-77
2024/01/17 05:14:02;;;;;;;8.57;5.50;;;3.10;61.70;5.10;99427.00;;;;5031821;28;20207;-76
2024/01/17 05:16:30;;;;;;;7.50;4.68;;;3.10;61.70;5.10;99423.00;;;;5033187;28;20192;-77
2024/01/17 05:18:57;;;;;;;6.28;4.80;;;3.10;61.60;5.20;99427.00;;;;5030354;28;20227;-76
2024/01/17 05:21:24;;;;;;;8.15;5.13;;;3.10;61.60;5.20;99412.00;;;;5032848;28;20204;-77
2024/01/17 05:23:52;;;;;;;6.18;4.80;;;3.10;61.70;5.20;99409.00;;;;5034504;28;20307;-76
2024/01/17 05:26:20;;;;;;;8.10;5.07;;;3.10;61.70;5.20;99399.00;;;;5032864;28;20295;-77
2024/01/17 05:28:47;;;;;;;7.72;5.10;;;3.10;61.70;5.20;99384.00;;;;5030348;28;20654;-76
2024/01/17 05:31:15;;;;;;;6.75;4.63;;;3.10;61.80;5.20;99379.00;;;;5031641;28;20272;-77
2024/01/17 05:33:44;;;;;;;8.00;5.78;;;3.10;61.80;5.10;99374.00;;;;5029999;28;20208;-76
2024/01/17 05:36:12;;;;;;;6.85;4.78;;;3.10;61.90;5.20;99375.00;;;;5030957;28;20278;-76
2024/01/17 05:38:39;;;;;;;9.02;5.38;;;3.10;61.80;5.10;99372.00;;;;5032393;28;20284;-76
2024/01/17 05:41:06;;;;;;;7.13;5.47;;;3.10;61.70;5.20;99366.00;;;;5041761;28;20206;-76
2024/01/17 05:43:33;;;;;;;7.80;5.05;;;3.10;61.80;5.20;99366.00;;;;5039416;28;20201;-76
2024/01/17 05:46:00;;;;;;;7.93;5.70;;;3.10;61.90;5.20;99357.00;;;;5030910;28;20669;-76
2024/01/17 05:48:27;;;;;;;7.63;5.47;;;3.10;61.90;5.20;99356.00;;;;5032001;28;20201;-76
2024/01/17 05:50:56;;;;;;;8.98;5.68;;;3.10;61.90;5.20;99354.00;;;;5032763;28;20208;-76
2024/01/17 05:53:23;;;;;;;5.88;4.85;;;3.10;61.90;5.20;99352.00;;;;5030400;28;20196;-77
2024/01/17 05:55:52;;;;;;;10.98;5.63;;;3.10;61.80;5.20;99349.00;;;;5031149;28;20202;-76
2024/01/17 05:58:19;;;;;;;6.55;5.15;;;3.10;61.70;5.10;99343.00;;;;5030326;28;20244;-76
2024/01/17 06:00:46;;;;;;;8.90;6.03;;;3.10;61.70;5.20;99342.00;;;;5025794;28;20670;-75
2024/01/17 06:03:13;;;;;;;7.20;5.43;;;3.00;61.60;5.10;99339.00;;;;5024093;28;20200;-77
2024/01/17 06:05:41;;;;;;;5.53;4.90;;;3.00;61.60;5.20;99342.00;;;;5028913;28;20200;-77
2024/01/17 06:08:09;;;;;;;7.00;4.88;;;3.00;61.80;5.10;99338.00;;;;5031076;28;20228;-77
2024/01/17 06:10:37;;;;;;;7.15;5.28;;;3.00;61.80;5.10;99330.00;;;;5032085;28;20242;-77
2024/01/17 06:13:05;;;;;;;7.75;4.53;;;3.00;61.80;5.10;99322.00;;;;5028766;28;20197;-77
2024/01/17 06:15:32;;;;;;;6.60;4.55;;;3.00;61.80;5.10;99308.00;;;;5030658;28;20189;-76
2024/01/17 06:18:00;;;;;;;6.63;5.00;;;3.00;61.70;5.10;99305.00;;;;5031763;28;20196;-76
2024/01/17 06:20:27;;;;;;;8.27;5.80;;;3.00;61.70;5.10;99304.00;;;;5032466;28;20315;-76
2024/01/17 06:22:54;;;;;;;10.02;6.40;;;3.00;61.70;5.10;99294.00;;;;5028353;28;20600;-76
2024/01/17 06:25:22;;;;;;;7.95;5.32;;;3.00;61.60;5.10;99291.00;;;;5029552;28;20216;-77
2024/01/17 06:27:49;;;;;;;9.20;6.40;;;3.00;61.60;5.10;99283.00;;;;5025744;28;20605;-77
2024/01/17 06:30:17;;;;;;;9.13;5.90;;;3.00;61.60;5.10;99288.00;;;;5031219;28;20196;-77
2024/01/17 06:32:44;;;;;;;7.82;5.40;;;3.00;61.60;5.00;99285.00;;;;5046295;28;20745;-76
2024/01/17 06:35:11;;;;;;;7.47;5.15;;;3.00;61.60;5.10;99274.00;;;;5035979;28;20624;-77
2024/01/17 06:37:38;;;;;;;10.32;5.72;;;3.00;61.60;5.10;99268.00;;;;5028734;28;20306;-77
2024/01/17 06:40:08;;;;;;;7.45;5.82;;;3.00;61.60;5.00;99271.00;;;;5031507;28;20378;-77
2024/01/17 06:42:36;;;;;;;7.20;5.85;;;3.00;61.60;5.00;99270.00;;;;5029686;28;20785;-77
2024/01/17 06:45:03;;;;;;;9.00;5.93;;;3.00;61.60;5.00;99258.00;;;;5029781;28;20197;-76
2024/01/17 06:47:30;;;;;;;8.15;6.35;;;3.00;61.70;5.00;99258.00;;;;5015474;28;20291;-76
2024/01/17 06:49:57;;;;;;;7.78;5.57;;;3.00;61.70;5.00;99259.00;;;;5029630;28;20292;-77
2024/01/17 06:52:24;;;;;;;7.18;5.75;;;3.00;61.70;5.00;99255.00;;;;5026479;28;20284;-77
2024/01/17 06:54:51;;;;;;;8.90;5.75;;;3.00;61.80;5.00;99248.00;;;;5027851;28;20192;-76
2024/01/17 06:57:19;;;;;;;7.85;6.22;;;3.00;61.80;5.00;99244.00;;;;5026522;28;20196;-77
2024/01/17 06:59:48;;;;;;;7.28;5.45;;;3.00;61.90;5.00;99235.00;;;;5030724;28;20223;-77
2024/01/17 07:02:15;;;;;;;7.60;5.80;;;3.00;61.80;5.00;99233.00;;;;5027020;28;20673;-77
2024/01/17 07:04:42;;;;;;;7.47;5.40;;;3.00;61.70;5.00;99236.00;;;;5031422;28;20200;-77
2024/01/17 07:07:09;;;;;;;7.95;5.80;;;3.00;61.80;5.00;99236.00;;;;5041871;28;20292;-78
2024/01/17 07:09:36;;;;;;;7.43;5.13;;;3.00;61.80;5.00;99235.00;;;;5031455;28;20274;-77
2024/01/17 07:12:05;;;;;;;6.70;5.68;;;3.00;61.80;5.00;99232.00;;;;5024446;28;20203;-77
2024/01/17 07:14:32;;;;;;;7.50;5.75;;;3.00;61.80;5.00;99232.00;;;;5024032;28;20553;-76
2024/01/17 07:17:00;;;;;;;7.78;5.13;;;3.00;61.70;5.00;99228.00;;;;5018256;28;20199;-78
2024/01/17 07:19:27;;;;;;;8.85;5.78;;;3.00;61.70;5.00;99227.00;;;;5031186;28;20213;-78
2024/01/17 07:21:54;;;;;;;7.93;5.28;;;3.00;61.70;5.00;99224.00;;;;5028854;28;20230;-78
2024/01/17 07:24:21;;;;;;;8.75;4.93;;;3.00;61.70;5.00;99222.00;;;;5029847;28;20299;-78
2024/01/17 07:26:48;;;;;;;9.57;5.53;;;3.00;61.70;5.00;99206.00;;;;5026009;28;20200;-77
2024/01/17 07:29:15;;;;;;;9.90;5.53;;;3.00;61.80;5.00;99206.00;;;;5032398;28;20287;-77
2024/01/17 07:31:42;;;;;;;6.85;5.18;;;3.00;61.80;5.10;99216.00;;;;5032095;28;20189;-78
2024/01/17 07:34:11;;;;;;;8.10;5.60;;;3.00;61.80;5.00;99218.00;;;;5034958;28;20204;-77
2024/01/17 07:36:38;;;;;;;8.18;5.75;;;3.00;61.70;5.10;99210.00;;;;5025865;28;20196;-78
2024/01/17 07:39:06;;;;;;;8.75;5.53;;;3.00;61.60;5.00;99211.00;;;;5033704;28;20629;-78
2024/01/17 07:41:33;;;;;;;8.15;6.00;;;3.00;61.60;5.10;99206.00;;;;5048366;28;20224;-78
2024/01/17 07:44:00;;;;;;;8.07;5.88;;;3.00;61.60;5.00;99201.00;;;;5033005;28;20196;-78
2024/01/17 07:46:27;;;;;;;8.45;5.70;;;3.00;61.60;5.10;99207.00;;;;5024334;28;20262;-77
2024/01/17 07:48:54;;;;;;;7.40;5.15;;;3.00;61.70;5.10;99198.00;;;;5033416;28;20205;-79
2024/01/17 07:51:23;;;;;;;8.57;5.40;;;3.00;61.60;5.10;99184.00;;;;5032880;28;20295;-79
2024/01/17 07:53:51;;;;;;;8.27;5.05;;;3.10;61.70;5.10;99182.00;;;;5032027;28;20625;-78
2024/01/17 07:56:18;;;;;;;7.15;5.20;;;3.10;61.70;5.10;99175.00;;;;5037638;28;20207;-78
2024/01/17 07:58:45;;;;;;;7.47;5.03;;;3.10;61.70;5.10;99185.00;;;;5047440;28;20201;-77
2024/01/17 08:01:13;;;;;;;8.05;5.60;;;3.10;61.60;5.10;99188.00;;;;5025556;28;20314;-77
2024/01/17 08:03:40;;;;;;;6.90;5.28;;;3.10;61.70;5.10;99178.00;;;;5022496;28;20208;-76
2024/01/17 08:06:09;;;;;;;7.82;5.53;;;3.10;61.70;5.20;99172.00;;;;5031666;28;20709;-77
2024/01/17 08:08:38;;;;;;;9.45;5.22;;;3.10;61.70;5.20;99173.00;;;;5033824;28;20207;-76
2024/01/17 08:11:05;;;;;;;9.02;5.18;;;3.10;61.80;5.20;99171.00;;;;5034600;28;20212;-77
2024/01/17 08:13:33;;;;;;;8.35;5.78;;;3.10;61.80;5.20;99164.00;;;;5032816;28;20269;-77
2024/01/17 08:16:01;;;;;;;8.07;4.93;;;3.10;61.80;5.20;99152.00;;;;5027876;28;20215;-76
2024/01/17 08:18:28;;;;;;;8.98;5.68;;;3.20;61.80;5.20;99146.00;;;;5023791;28;20653;-76
2024/01/17 08:20:55;;;;;;;7.78;4.57;;;3.20;61.80;5.30;99138.00;;;;5023207;28;20234;-77
2024/01/17 08:23:22;;;;;;;7.85;5.10;;;3.20;61.80;5.30;99143.00;;;;5030775;28;20234;-78
2024/01/17 08:25:50;;;;;;;7.00;5.40;;;3.20;61.70;5.30;99139.00;;;;5030060;28;20220;-77
2024/01/17 08:28:17;;;;;;;8.50;5.53;;;3.30;61.70;5.40;99139.00;;;;5028868;28;20200;-77
2024/01/17 08:30:45;;;;;;;7.88;5.53;;;3.30;61.80;5.40;99132.00;;;;5036963;28;20210;-76
2024/01/17 08:33:14;;;;;;;8.57;5.95;;;3.30;61.80;5.40;99132.00;;;;5036924;28;20719;-77
2024/01/17 08:35:42;;;;;;;9.32;5.88;;;3.30;61.70;5.40;99128.00;;;;5031429;28;20214;-78
2024/01/17 08:38:09;;;;;;;9.00;6.15;;;3.40;61.80;5.50;99125.00;;;;5028794;28;20205;-77
2024/01/17 08:40:36;;;;;;;9.70;5.70;;;3.30;61.70;5.50;99123.00;;;;5032892;28;20224;-76
2024/01/17 08:43:05;;;;;;;7.45;5.07;;;3.40;61.80;5.50;99124.00;;;;5032803;28;20200;-76
2024/01/17 08:45:33;;;;;;;6.75;4.78;;;3.40;61.80;5.60;99127.00;;;;5031107;28;20593;-77
2024/01/17 08:48:00;;;;;;;8.82;5.47;;;3.40;61.70;5.60;99120.00;;;;5033133;28;20285;-76
2024/01/17 08:50:27;;;;;;;8.93;5.60;;;3.40;61.80;5.60;99115.00;;;;5029463;28;20574;-76
2024/01/17 08:52:54;;;;;;;7.38;4.93;;;3.50;61.80;5.60;99121.00;;;;5029050;28;20200;-77
2024/01/17 08:55:21;;;;;;;7.28;5.80;;;3.50;61.90;5.70;99120.00;;;;5029998;28;20215;-76
2024/01/17 08:57:48;;;;;;;7.75;5.57;;;3.50;61.90;5.70;99111.00;;;;5030071;28;20283;-77
2024/01/17 09:00:17;;;;;;;7.88;5.28;;;3.60;61.90;5.80;99121.00;;;;5029656;28;20224;-75
2024/01/17 09:02:44;;;;;;;8.55;5.63;;;3.60;61.80;5.80;99114.00;;;;5030416;28;20192;-76
2024/01/17 09:05:12;;;;;;;8.80;5.57;;;3.70;61.80;5.90;99102.00;;;;5028919;28;20204;-75
2024/01/17 09:07:42;;;;;;;9.45;5.72;;;3.70;61.80;5.90;99104.00;;;;5026069;28;20195;-75
2024/01/17 09:10:13;;;;;;;7.25;4.90;;;3.70;61.70;6.00;99099.00;;;;5025987;28;20207;-76
2024/01/17 09:12:40;;;;;;;7.38;5.70;;;3.70;61.70;6.00;99102.00;;;;5025428;28;20219;-75
2024/01/17 09:15:07;;;;;;;6.40;5.13;;;3.80;61.70;6.10;99097.00;;;;5030553;28;20207;-75
2024/01/17 09:17:36;;;;;;;9.90;6.28;;;3.80;61.60;6.10;99089.00;;;;5028217;28;20196;-75
2024/01/17 09:20:06;;;;;;;9.88;5.88;;;3.90;61.80;6.20;99085.00;;;;5027212;28;20596;-76
2024/01/17 09:22:33;;;;;;;7.55;5.50;;;3.90;61.50;6.20;99078.00;;;;5030194;28;20585;-75
2024/01/17 09:25:01;;;;;;;6.60;5.13;;;3.90;62.10;6.20;99077.00;;;;5031594;28;20220;-76
2024/01/17 09:27:28;;;;;;;8.63;6.30;;;4.00;61.40;6.30;99072.00;;;;5023862;28;20203;-75
2024/01/17 09:29:55;;;;;;;8.30;6.00;;;4.00;61.40;6.40;99072.00;;;;5025950;28;20188;-74
2024/01/17 09:32:22;;;;;;;8.45;5.43;;;4.00;61.40;6.40;99059.00;;;;5020514;28;20204;-75
2024/01/17 09:34:50;;;;;;;9.05;5.53;;;4.10;61.50;6.40;99060.00;;;;5020415;28;20284;-75
2024/01/17 09:37:18;;;;;;;8.20;5.93;;;4.10;61.40;6.50;99051.00;;;;5024181;28;20697;-75
2024/01/17 09:39:45;;;;;;;7.45;5.65;;;4.10;61.20;6.50;99056.00;;;;5032002;28;20192;-75
2024/01/17 09:42:15;;;;;;;8.82;6.07;;;4.20;61.30;6.50;99044.00;;;;5027219;28;20200;-75
2024/01/17 09:44:43;;;;;;;8.95;6.22;;;4.20;61.30;6.60;99050.00;;;;5030519;28;20295;-75
2024/01/17 09:47:16;;;;;;;8.50;5.82;;;4.30;61.30;6.60;99053.00;;;;5029372;28;20200;-75
2024/01/17 09:49:43;;;;;;;8.52;5.88;;;4.30;61.30;6.70;99056.00;;;;5029020;28;20207;-75
2024/01/17 09:52:17;;;;;;;8.98;5.78;;;4.30;61.10;6.70;99053.00;;;;5030223;28;20200;-75
2024/01/17 09:54:47;;;;;;;8.32;5.72;;;4.40;61.10;6.70;99051.00;;;;5031761;28;20733;-75
2024/01/17 09:57:22;;;;;;;13.15;6.63;;;4.40;61.10;6.70;99052.00;;;;5026995;28;20201;-75
2024/01/17 09:59:54;;;;;;;9.18;5.78;;;4.40;60.80;6.80;99044.00;;;;5029823;28;20196;-75
2024/01/17 10:02:21;;;;;;;9.52;5.80;;;4.50;60.80;6.80;99040.00;;;;5024288;28;20204;-75
2024/01/17 10:04:50;;;;;;;11.25;6.63;;;4.50;60.80;6.80;99047.00;;;;5025180;28;20713;-74
2024/01/17 10:07:19;;;;;;;9.23;5.93;;;4.50;60.80;6.90;99034.00;;;;5023026;28;20288;-75
2024/01/17 10:09:46;;;;;;;7.32;5.03;;;4.60;60.80;6.90;99034.00;;;;5021796;28;20196;-75
2024/01/17 10:12:17;;;;;;;9.70;5.90;;;4.60;60.80;7.00;99029.00;;;;5031163;28;20197;-75
2024/01/17 10:14:44;;;;;;;8.18;6.43;;;4.60;60.80;7.00;99026.00;;;;5039208;28;20192;-75
2024/01/17 10:17:11;;;;;;;10.07;6.55;;;4.70;60.70;7.00;99022.00;;;;5024451;28;20200;-76
2024/01/17 10:19:39;;;;;;;9.43;6.03;;;4.70;60.70;7.10;99013.00;;;;5021634;28;20231;-75
2024/01/17 10:22:10;;;;;;;7.97;6.03;;;4.70;60.60;7.10;99015.00;;;;5028606;28;20664;-74
2024/01/17 10:24:39;;;;;;;8.80;5.70;;;4.80;60.70;7.10;99019.00;;;;5031275;28;20693;-74
2024/01/17 10:27:07;;;;;;;11.10;6.53;;;4.80;60.40;7.20;99007.00;;;;5029123;28;20608;-74
2024/01/17 10:29:38;;;;;;;10.40;6.13;;;4.80;60.50;7.20;99014.00;;;;5024433;28;20200;-74
2024/01/17 10:32:06;;;;;;;10.15;6.28;;;4.80;60.50;7.20;99008.00;;;;5028150;28;20250;-75
2024/01/17 10:34:34;;;;;;;8.98;6.10;;;4.90;60.50;7.30;98992.00;;;;5023882;28;20199;-75
2024/01/17 10:37:04;;;;;;;10.10;6.40;;;4.90;60.50;7.30;98991.00;;;;5028915;28;20673;-74
2024/01/17 10:39:31;;;;;;;8.93;5.30;;;4.90;60.30;7.30;98987.00;;;;5024992;28;20283;-74
2024/01/17 10:41:59;;;;;;;9.65;5.97;;;5.00;60.30;7.30;98994.00;;;;5029565;28;20318;-75
2024/01/17 10:44:28;;;;;;;8.43;5.43;;;5.00;60.20;7.40;98981.00;;;;5028093;28;20299;-74
2024/01/17 10:46:55;;;;;;;7.80;5.65;;;5.00;60.20;7.40;98977.00;;;;5027371;28;20197;-75
2024/01/17 10:49:24;;;;;;;9.27;6.47;;;5.10;60.30;7.40;98976.00;;;;5027856;28;20200;-75
2024/01/17 10:52:01;;;;;;;10.93;5.47;;;5.10;60.10;7.40;98978.00;;;;5027052;28;20201;-74
2024/01/17 10:54:35;;;;;;;10.07;6.47;;;5.10;60.10;7.50;98965.00;;;;5023547;28;20665;-75
2024/01/17 10:57:10;;;;;;;11.35;6.18;;;5.20;60.20;7.50;98977.00;;;;5025897;28;20193;-74
2024/01/17 10:59:42;;;;;;;8.70;5.57;;;5.20;60.00;7.50;98975.00;;;;5009414;28;20192;-74
2024/01/17 11:02:18;;;;;;;8.68;5.68;;;5.20;60.00;7.50;98968.00;;;;5027108;28;20250;-74
2024/01/17 11:04:49;;;;;;;13.93;6.93;;;5.30;60.10;7.60;98961.00;;;;5038931;28;20289;-74
2024/01/17 11:07:18;;;;;;;7.53;5.63;;;5.30;60.10;7.70;98961.00;;;;5031790;28;20196;-74
2024/01/17 11:09:48;;;;;;;8.90;5.63;;;5.30;60.00;7.60;98957.00;;;;5029923;28;20291;-74